createdAt,value
2022-10-19T00:01:38.918Z,14.40
2022-10-19T00:04:09.511Z,14.40
2022-10-19T00:06:40.555Z,14.40
2022-10-19T00:09:12.798Z,14.30
2022-10-19T00:11:47.705Z,14.30
2022-10-19T00:14:21.115Z,14.30
2022-10-19T00:16:53.406Z,14.30
2022-10-19T00:19:26.423Z,14.30
2022-10-19T00:21:57.165Z,14.20
2022-10-19T00:24:27.455Z,14.30
2022-10-19T00:27:00.393Z,14.20
2022-10-19T00:29:30.718Z,14.20
2022-10-19T00:32:00.991Z,14.20
2022-10-19T00:34:31.311Z,14.20
2022-10-19T00:37:01.549Z,14.20
2022-10-19T00:39:31.890Z,14.20
2022-10-19T00:42:04.707Z,14.20
2022-10-19T00:45:04.407Z,14.10
2022-10-19T00:47:35.721Z,14.10
2022-10-19T00:50:06.180Z,14.10
2022-10-19T00:52:36.690Z,14.10
2022-10-19T00:55:07.930Z,14.10
2022-10-19T00:57:41.006Z,14.10
2022-10-19T01:00:14.870Z,14.00
2022-10-19T01:02:45.097Z,13.90
2022-10-19T01:05:15.732Z,14.00
2022-10-19T01:07:45.976Z,14.00
2022-10-19T01:10:16.594Z,14.00
2022-10-19T01:13:01.362Z,14.00
2022-10-19T01:15:43.718Z,14.00
2022-10-19T01:18:22.804Z,14.00
2022-10-19T01:21:23.810Z,13.90
2022-10-19T01:24:21.326Z,14.00
2022-10-19T01:27:30.697Z,14.00
2022-10-19T01:30:16.472Z,13.90
2022-10-19T01:33:25.168Z,13.90
2022-10-19T01:36:03.751Z,13.90
2022-10-19T01:38:37.807Z,13.90
2022-10-19T01:41:19.042Z,13.90
2022-10-19T01:44:00.046Z,13.80
2022-10-19T01:46:39.044Z,13.80
2022-10-19T01:49:14.213Z,13.80
2022-10-19T01:51:48.811Z,13.70
2022-10-19T01:54:21.975Z,13.70
2022-10-19T01:56:54.376Z,13.70
2022-10-19T01:59:25.348Z,13.70
2022-10-19T02:01:58.807Z,13.70
2022-10-19T02:04:29.578Z,13.70
2022-10-19T02:07:01.280Z,13.70
2022-10-19T02:09:31.849Z,13.70
2022-10-19T02:12:05.762Z,13.60
2022-10-19T02:14:39.557Z,13.60
2022-10-19T02:17:15.758Z,13.70
2022-10-19T02:19:46.391Z,13.60
2022-10-19T02:22:16.784Z,13.60
2022-10-19T02:24:47.105Z,13.60
2022-10-19T02:27:17.395Z,13.60
2022-10-19T02:29:48.459Z,13.60
2022-10-19T02:32:21.286Z,13.60
2022-10-19T02:34:51.934Z,13.60
2022-10-19T02:37:24.765Z,13.60
2022-10-19T02:39:56.182Z,13.60
2022-10-19T02:42:33.197Z,13.50
2022-10-19T02:45:10.771Z,13.50
2022-10-19T02:47:48.151Z,13.50
2022-10-19T02:50:19.769Z,13.50
2022-10-19T02:52:49.947Z,13.40
2022-10-19T02:55:20.429Z,13.50
2022-10-19T02:57:50.599Z,13.40
2022-10-19T03:00:21.231Z,13.50
2022-10-19T03:02:54.162Z,13.40
2022-10-19T03:05:24.441Z,13.40
2022-10-19T03:07:54.722Z,13.40
2022-10-19T03:10:25.087Z,13.40
2022-10-19T03:12:55.426Z,13.30
2022-10-19T03:15:29.210Z,13.30
2022-10-19T03:18:02.112Z,13.30
2022-10-19T03:20:32.405Z,13.30
2022-10-19T03:23:02.654Z,13.20
2022-10-19T03:25:32.968Z,13.20
2022-10-19T03:28:03.405Z,13.20
2022-10-19T03:30:33.720Z,13.30
2022-10-19T03:33:06.612Z,13.20
2022-10-19T03:35:36.875Z,13.30
2022-10-19T03:38:07.100Z,13.20
2022-10-19T03:40:37.456Z,13.30
2022-10-19T03:43:07.670Z,13.20
2022-10-19T03:45:38.003Z,13.30
2022-10-19T03:48:11.520Z,13.20
2022-10-19T03:50:41.837Z,13.20
2022-10-19T03:53:12.108Z,13.30
2022-10-19T03:55:42.544Z,13.20
2022-10-19T03:58:12.974Z,13.20
2022-10-19T04:00:43.423Z,13.20
2022-10-19T04:03:16.232Z,13.10
2022-10-19T04:05:46.502Z,13.20
2022-10-19T04:08:16.754Z,13.10
2022-10-19T04:10:47.128Z,13.10
2022-10-19T04:13:17.287Z,13.10
2022-10-19T04:15:47.561Z,13.00
2022-10-19T04:18:20.410Z,13.00
2022-10-19T04:20:50.762Z,13.00
2022-10-19T04:23:20.950Z,13.00
2022-10-19T04:25:51.241Z,13.00
2022-10-19T04:28:21.447Z,13.00
2022-10-19T04:30:51.914Z,12.90
2022-10-19T04:33:24.799Z,12.90
2022-10-19T04:36:01.934Z,12.90
2022-10-19T04:38:32.824Z,12.90
2022-10-19T04:41:05.575Z,12.80
2022-10-19T04:43:35.962Z,12.80
2022-10-19T04:46:07.209Z,12.80
2022-10-19T04:48:41.319Z,12.80
2022-10-19T04:51:12.873Z,12.80
2022-10-19T04:53:44.339Z,12.80
2022-10-19T04:56:16.874Z,12.70
2022-10-19T04:58:47.588Z,12.70
2022-10-19T05:01:20.030Z,12.70
2022-10-19T05:06:47.249Z,12.70
2022-10-19T05:09:17.543Z,12.70
2022-10-19T05:11:47.948Z,12.70
2022-10-19T05:14:18.224Z,12.70
2022-10-19T05:16:48.548Z,12.80
2022-10-19T05:19:21.744Z,12.60
2022-10-19T05:21:52.276Z,12.60
2022-10-19T05:24:22.527Z,12.70
2022-10-19T05:26:53.205Z,12.60
2022-10-19T05:29:24.618Z,12.70
2022-10-19T05:31:55.157Z,12.70
2022-10-19T05:34:28.025Z,12.70
2022-10-19T05:36:59.115Z,12.70
2022-10-19T05:39:29.544Z,12.70
2022-10-19T05:41:59.933Z,12.60
2022-10-19T05:44:30.188Z,12.70
2022-10-19T05:47:00.779Z,12.70
2022-10-19T05:49:33.783Z,12.70
2022-10-19T05:52:04.265Z,12.60
2022-10-19T05:54:36.135Z,12.60
2022-10-19T05:57:06.559Z,12.60
2022-10-19T05:59:36.947Z,12.50
2022-10-19T06:02:07.362Z,12.50
2022-10-19T06:04:40.302Z,12.50
2022-10-19T06:07:10.631Z,12.50
2022-10-19T06:09:40.924Z,12.40
2022-10-19T06:12:11.258Z,12.50
2022-10-19T06:14:42.721Z,12.40
2022-10-19T06:17:13.258Z,12.40
2022-10-19T06:19:46.240Z,12.40
2022-10-19T06:22:16.533Z,12.70
2022-10-19T06:24:46.721Z,12.70
2022-10-19T06:27:17.087Z,12.50
2022-10-19T06:29:47.307Z,12.50
2022-10-19T06:32:17.908Z,12.40
2022-10-19T06:34:53.049Z,12.40
2022-10-19T06:37:26.110Z,12.40
2022-10-19T06:39:56.432Z,12.40
2022-10-19T06:42:26.899Z,12.40
2022-10-19T06:44:57.066Z,12.40
2022-10-19T06:47:31.487Z,12.40
2022-10-19T06:50:04.431Z,12.40
2022-10-19T06:52:35.848Z,12.50
2022-10-19T06:55:07.037Z,12.40
2022-10-19T06:57:37.593Z,12.30
2022-10-19T07:00:09.324Z,12.30
2022-10-19T07:02:39.847Z,12.30
2022-10-19T07:05:13.374Z,12.30
2022-10-19T07:07:43.788Z,12.40
2022-10-19T07:10:14.335Z,12.40
2022-10-19T07:12:44.824Z,12.30
2022-10-19T07:15:15.085Z,12.30
2022-10-19T07:17:45.458Z,12.40
2022-10-19T07:20:18.505Z,12.40
2022-10-19T07:22:48.872Z,12.30
2022-10-19T07:25:19.202Z,12.30
2022-10-19T07:27:49.574Z,12.30
2022-10-19T07:30:20.794Z,12.40
2022-10-19T07:32:51.599Z,12.40
2022-10-19T07:35:24.516Z,12.40
2022-10-19T07:37:55.189Z,12.50
2022-10-19T07:40:25.768Z,12.50
2022-10-19T07:42:56.696Z,12.50
2022-10-19T07:45:27.112Z,12.50
2022-10-19T07:47:57.513Z,12.50
2022-10-19T07:50:30.619Z,12.60
2022-10-19T07:53:02.838Z,12.60
2022-10-19T07:55:33.158Z,12.70
2022-10-19T07:58:03.537Z,12.70
2022-10-19T08:00:33.943Z,12.70
2022-10-19T08:03:57.561Z,12.70
2022-10-19T08:05:57.520Z,12.70
2022-10-19T08:08:28.135Z,12.70
2022-10-19T08:10:58.865Z,12.80
2022-10-19T08:13:29.331Z,12.70
2022-10-19T08:15:59.669Z,12.70
2022-10-19T08:18:30.095Z,12.70
2022-10-19T08:21:06.063Z,12.80
2022-10-19T08:23:36.525Z,12.80
2022-10-19T08:26:06.926Z,12.90
2022-10-19T08:28:37.494Z,12.90
2022-10-19T08:31:13.695Z,12.90
2022-10-19T08:33:44.852Z,13.00
2022-10-19T08:36:19.928Z,13.00
2022-10-19T08:38:51.658Z,13.00
2022-10-19T08:41:29.446Z,13.10
2022-10-19T08:44:22.240Z,13.10
2022-10-19T08:47:03.869Z,13.10
2022-10-19T08:49:35.867Z,13.10
2022-10-19T08:52:15.034Z,13.10
2022-10-19T08:54:52.848Z,13.10
2022-10-19T08:57:38.187Z,13.20
2022-10-19T09:00:17.158Z,13.20
2022-10-19T09:03:01.051Z,13.30
2022-10-19T09:05:39.232Z,13.30
2022-10-19T09:08:17.730Z,13.30
2022-10-19T09:10:52.013Z,13.30
2022-10-19T09:13:41.513Z,13.60
2022-10-19T09:16:22.760Z,13.50
2022-10-19T09:21:33.410Z,13.60
2022-10-19T09:24:28.394Z,13.60
2022-10-19T09:27:02.036Z,13.70
2022-10-19T09:29:40.395Z,13.70
2022-10-19T09:32:17.571Z,13.80
2022-10-19T09:34:52.400Z,13.80
2022-10-19T09:37:26.545Z,13.90
2022-10-19T09:40:00.391Z,13.90
2022-10-19T09:42:33.767Z,14.00
2022-10-19T09:45:17.512Z,14.00
2022-10-19T09:47:51.357Z,14.10
2022-10-19T09:50:24.354Z,14.10
2022-10-19T09:52:56.167Z,14.10
2022-10-19T09:55:42.689Z,14.20
2022-10-19T09:58:20.595Z,14.30
2022-10-19T10:00:54.983Z,14.30
2022-10-19T10:03:29.221Z,14.40
2022-10-19T10:06:01.370Z,14.50
2022-10-19T10:08:36.499Z,14.50
2022-10-19T10:11:13.444Z,14.50
2022-10-19T10:13:45.598Z,14.60
2022-10-19T10:16:19.356Z,14.70
2022-10-19T10:18:57.203Z,14.80
2022-10-19T10:21:32.192Z,14.80
2022-10-19T10:24:06.020Z,14.90
2022-10-19T10:26:42.763Z,15.00
2022-10-19T10:29:24.287Z,15.00
2022-10-19T10:31:57.701Z,15.10
2022-10-19T10:34:58.423Z,15.20
2022-10-19T10:37:37.632Z,15.20
2022-10-19T10:40:11.102Z,15.30
2022-10-19T10:42:47.048Z,15.30
2022-10-19T10:45:23.047Z,15.30
2022-10-19T10:47:53.731Z,15.40
2022-10-19T10:50:26.939Z,15.50
2022-10-19T10:53:02.734Z,15.50
2022-10-19T10:55:34.358Z,15.60
2022-10-19T10:58:17.079Z,15.60
2022-10-19T11:00:49.610Z,15.60
2022-10-19T11:03:25.739Z,15.70
2022-10-19T11:05:59.981Z,15.80
2022-10-19T11:08:35.182Z,15.80
2022-10-19T11:11:14.332Z,15.90
2022-10-19T11:13:52.125Z,16.00
2022-10-19T11:16:26.803Z,16.00
2022-10-19T11:19:01.743Z,16.00
2022-10-19T11:21:39.615Z,16.00
2022-10-19T11:24:18.590Z,16.00
2022-10-19T11:27:02.338Z,16.00
2022-10-19T11:29:49.689Z,16.10
2022-10-19T11:32:27.594Z,16.20
2022-10-19T11:35:14.085Z,16.20
2022-10-19T11:38:17.579Z,16.30
2022-10-19T11:41:06.072Z,16.30
2022-10-19T11:43:45.958Z,16.30
2022-10-19T11:46:27.596Z,16.40
2022-10-19T11:49:19.845Z,16.40
2022-10-19T11:51:57.777Z,16.40
2022-10-19T11:54:44.442Z,16.50
2022-10-19T11:57:19.169Z,16.50
2022-10-19T12:00:14.578Z,16.60
2022-10-19T12:03:17.025Z,16.60
2022-10-19T12:05:59.146Z,16.60
2022-10-19T12:08:43.966Z,16.60
2022-10-19T12:11:27.828Z,16.60
2022-10-19T12:14:02.084Z,16.70
2022-10-19T12:16:38.764Z,16.70
2022-10-19T12:19:19.522Z,16.70
2022-10-19T12:21:50.544Z,16.70
2022-10-19T12:24:24.806Z,16.70
2022-10-19T12:26:57.551Z,16.70
2022-10-19T12:29:30.984Z,16.80
2022-10-19T12:32:03.973Z,16.80
2022-10-19T12:34:45.331Z,16.90
2022-10-19T12:37:26.741Z,16.90
2022-10-19T12:40:01.002Z,16.90
2022-10-19T12:42:36.276Z,17.00
2022-10-19T12:45:26.128Z,17.10
2022-10-19T12:48:24.893Z,17.10
2022-10-19T12:51:07.203Z,17.20
2022-10-19T12:53:40.383Z,17.30
2022-10-19T12:56:14.661Z,17.40
2022-10-19T12:58:53.260Z,17.50
2022-10-19T13:01:25.323Z,17.70
2022-10-19T13:04:09.841Z,17.70
2022-10-19T13:06:45.622Z,17.80
2022-10-19T13:09:26.906Z,17.80
2022-10-19T13:12:27.035Z,17.90
2022-10-19T13:14:58.782Z,17.80
2022-10-19T13:17:44.263Z,17.80
2022-10-19T13:20:53.225Z,17.90
2022-10-19T13:23:45.569Z,18.00
2022-10-19T13:26:36.185Z,17.80
2022-10-19T13:29:06.579Z,17.80
2022-10-19T13:31:37.702Z,17.70
2022-10-19T13:34:14.003Z,17.80
2022-10-19T13:37:02.637Z,17.90
2022-10-19T13:39:42.192Z,17.90
2022-10-19T13:42:26.993Z,17.90
2022-10-19T13:44:57.541Z,17.90
2022-10-19T13:47:40.733Z,17.80
2022-10-19T13:50:29.379Z,17.90
2022-10-19T13:53:21.126Z,18.00
2022-10-19T13:56:22.479Z,17.90
2022-10-19T13:59:22.525Z,17.90
2022-10-19T14:02:04.518Z,17.90
2022-10-19T14:04:46.752Z,17.90
2022-10-19T14:07:21.977Z,17.90
2022-10-19T14:10:13.577Z,17.90
2022-10-19T14:12:48.925Z,17.90
2022-10-19T14:15:25.825Z,17.80
2022-10-19T14:17:56.155Z,17.90
2022-10-19T14:20:36.825Z,17.90
2022-10-19T14:23:21.966Z,17.80
2022-10-19T14:25:57.855Z,17.80
2022-10-19T14:28:31.910Z,17.70
2022-10-19T14:31:05.240Z,17.70
2022-10-19T14:33:38.127Z,17.70
2022-10-19T14:36:10.325Z,17.70
2022-10-19T14:38:43.592Z,17.70
2022-10-19T14:41:23.838Z,17.70
2022-10-19T14:43:57.277Z,17.70
2022-10-19T14:46:29.680Z,17.70
2022-10-19T14:49:04.375Z,17.60
2022-10-19T14:51:42.023Z,17.60
2022-10-19T14:54:22.779Z,17.50
2022-10-19T14:56:56.844Z,17.60
2022-10-19T14:59:34.887Z,17.60
2022-10-19T15:02:13.024Z,17.60
2022-10-19T15:04:43.551Z,17.50
2022-10-19T15:07:21.911Z,17.50
2022-10-19T15:09:57.379Z,17.50
2022-10-19T15:12:32.403Z,17.40
2022-10-19T15:15:10.986Z,17.50
2022-10-19T15:17:54.051Z,17.50
2022-10-19T15:20:29.847Z,17.40
2022-10-19T15:23:01.291Z,17.40
2022-10-19T15:25:37.223Z,17.40
2022-10-19T15:28:23.771Z,17.30
2022-10-19T15:31:20.029Z,17.30
2022-10-19T15:33:55.482Z,17.30
2022-10-19T15:36:27.791Z,17.20
2022-10-19T15:39:18.188Z,17.20
2022-10-19T15:41:55.939Z,17.20
2022-10-19T15:44:36.166Z,17.20
2022-10-19T15:47:27.669Z,17.20
2022-10-19T15:50:03.475Z,17.20
2022-10-19T15:52:36.696Z,17.20
2022-10-19T15:55:07.940Z,17.20
2022-10-19T15:57:40.255Z,17.20
2022-10-19T16:00:16.269Z,17.10
2022-10-19T16:02:49.169Z,17.10
2022-10-19T16:05:19.475Z,17.00
2022-10-19T16:07:50.216Z,17.00
2022-10-19T16:10:22.670Z,17.00
2022-10-19T16:12:53.001Z,17.00
2022-10-19T16:15:26.845Z,17.00
2022-10-19T16:18:02.403Z,17.00
2022-10-19T16:20:33.585Z,17.00
2022-10-19T16:23:03.787Z,17.00
2022-10-19T16:25:34.179Z,17.00
2022-10-19T16:28:04.372Z,16.90
2022-10-19T16:30:34.658Z,16.90
2022-10-19T16:33:07.790Z,16.90
2022-10-19T16:35:40.000Z,16.80
2022-10-19T16:38:10.207Z,16.90
2022-10-19T16:40:40.757Z,16.80
2022-10-19T16:43:11.076Z,16.90
2022-10-19T16:45:45.370Z,16.80
2022-10-19T16:48:23.054Z,16.80
2022-10-19T16:51:20.807Z,16.70
2022-10-19T16:53:54.056Z,16.70
2022-10-19T16:56:24.542Z,16.70
2022-10-19T16:58:58.201Z,16.60
2022-10-19T17:01:28.459Z,16.60
2022-10-19T17:04:02.081Z,16.60
2022-10-19T17:06:32.508Z,16.60
2022-10-19T17:11:53.598Z,16.40
2022-10-19T17:14:23.812Z,16.50
2022-10-19T17:16:54.060Z,16.40
2022-10-19T17:19:27.384Z,16.50
2022-10-19T17:21:59.307Z,16.50
2022-10-19T17:24:29.752Z,16.50
2022-10-19T17:27:00.075Z,16.50
2022-10-19T17:29:30.251Z,16.40
2022-10-19T17:32:01.078Z,16.40
2022-10-19T17:34:33.967Z,16.40
2022-10-19T17:37:04.347Z,16.40
2022-10-19T17:39:35.170Z,16.40
2022-10-19T17:42:05.574Z,16.40
2022-10-19T17:44:35.967Z,16.40
2022-10-19T17:47:06.376Z,16.30
2022-10-19T17:49:40.210Z,16.40
2022-10-19T17:52:10.664Z,16.50
2022-10-19T17:54:48.946Z,16.30
2022-10-19T17:57:31.974Z,16.20
2022-10-19T18:00:02.328Z,16.30
2022-10-19T18:02:42.540Z,16.30
2022-10-19T18:05:15.702Z,16.30
2022-10-19T18:07:49.364Z,16.30
2022-10-19T18:10:19.632Z,16.30
2022-10-19T18:12:50.363Z,16.30
2022-10-19T18:15:20.826Z,16.30
2022-10-19T18:17:51.138Z,16.30
2022-10-19T18:20:23.999Z,16.20
2022-10-19T18:22:54.305Z,16.30
2022-10-19T18:25:36.119Z,16.20
2022-10-19T18:28:15.647Z,16.20
2022-10-19T18:30:45.829Z,16.20
2022-10-19T18:33:16.296Z,16.20
2022-10-19T18:35:49.188Z,16.10
2022-10-19T18:38:19.412Z,16.10
2022-10-19T18:40:49.717Z,16.10
2022-10-19T18:43:20.379Z,16.10
2022-10-19T18:45:57.305Z,16.10
2022-10-19T18:48:29.049Z,16.10
2022-10-19T18:51:07.010Z,16.10
2022-10-19T18:53:37.666Z,16.10
2022-10-19T18:56:09.765Z,16.10
2022-10-19T18:58:40.701Z,16.10
2022-10-19T19:01:12.529Z,16.10
2022-10-19T19:03:45.133Z,16.00
2022-10-19T19:06:19.891Z,16.00
2022-10-19T19:08:51.031Z,16.00
2022-10-19T19:11:23.676Z,16.00
2022-10-19T19:13:55.662Z,15.90
2022-10-19T19:16:26.834Z,16.00
2022-10-19T19:18:58.005Z,16.00
2022-10-19T19:21:32.898Z,16.00
2022-10-19T19:24:05.601Z,16.10
2022-10-19T19:26:37.988Z,16.00
2022-10-19T19:29:08.762Z,15.90
2022-10-19T19:31:39.449Z,15.90
2022-10-19T19:34:09.709Z,16.00
2022-10-19T19:36:48.040Z,15.90
2022-10-19T19:39:21.561Z,15.90
2022-10-19T19:41:52.883Z,15.90
2022-10-19T19:44:23.314Z,15.90
2022-10-19T19:46:53.634Z,15.90
2022-10-19T19:49:25.099Z,15.90
2022-10-19T19:51:58.078Z,15.80
2022-10-19T19:54:28.649Z,15.80
2022-10-19T19:56:58.889Z,15.70
2022-10-19T19:59:30.504Z,15.80
2022-10-19T20:02:01.636Z,15.80
2022-10-19T20:04:32.221Z,15.70
2022-10-19T20:07:05.054Z,15.80
2022-10-19T20:09:35.496Z,15.70
2022-10-19T20:12:05.908Z,15.80
2022-10-19T20:14:36.396Z,15.80
2022-10-19T20:17:06.585Z,15.80
2022-10-19T20:19:36.913Z,15.80
2022-10-19T20:22:09.875Z,15.70
2022-10-19T20:24:40.200Z,15.80
2022-10-19T20:27:10.599Z,15.70
2022-10-19T20:29:40.973Z,15.70
2022-10-19T20:32:11.252Z,15.70
2022-10-19T20:34:41.552Z,15.70
2022-10-19T20:37:14.541Z,15.70
2022-10-19T20:39:44.808Z,15.70
2022-10-19T20:42:15.597Z,15.70
2022-10-19T20:44:45.959Z,15.60
2022-10-19T20:47:16.483Z,15.60
2022-10-19T20:49:46.754Z,15.70
2022-10-19T20:52:19.638Z,15.70
2022-10-19T20:54:51.623Z,15.70
2022-10-19T20:57:21.900Z,15.60
2022-10-19T20:59:52.472Z,15.60
2022-10-19T21:02:22.807Z,15.60
2022-10-19T21:04:53.077Z,15.60
2022-10-19T21:07:26.056Z,15.60
2022-10-19T21:09:57.435Z,15.60
2022-10-19T21:12:27.913Z,15.60
2022-10-19T21:14:58.267Z,15.60
2022-10-19T21:17:28.616Z,15.50
2022-10-19T21:19:58.971Z,15.50
2022-10-19T21:22:34.542Z,15.50
2022-10-19T21:25:08.829Z,15.50
2022-10-19T21:27:39.238Z,15.50
2022-10-19T21:30:10.882Z,15.50
2022-10-19T21:32:41.173Z,15.50
2022-10-19T21:35:11.924Z,15.50
2022-10-19T21:37:44.809Z,15.40
2022-10-19T21:40:15.266Z,15.40
2022-10-19T21:42:45.503Z,15.40
2022-10-19T21:45:29.750Z,15.40
2022-10-19T21:48:00.939Z,15.40
2022-10-19T21:50:31.314Z,15.40
2022-10-19T21:53:04.197Z,15.30
2022-10-19T21:55:36.747Z,15.40
2022-10-19T21:58:07.050Z,15.30
2022-10-19T22:00:37.499Z,15.30
2022-10-19T22:03:08.068Z,15.30
2022-10-19T22:05:38.541Z,15.30
2022-10-19T22:08:11.383Z,15.30
2022-10-19T22:10:41.724Z,15.30
2022-10-19T22:13:12.116Z,15.30
2022-10-19T22:15:43.154Z,15.30
2022-10-19T22:18:13.554Z,15.20
2022-10-19T22:20:44.185Z,15.20
2022-10-19T22:23:17.143Z,15.20
2022-10-19T22:25:47.318Z,15.20
2022-10-19T22:28:17.556Z,15.20
2022-10-19T22:30:56.018Z,15.30
2022-10-19T22:33:26.687Z,15.20
2022-10-19T22:35:58.400Z,15.20
2022-10-19T22:38:32.240Z,15.10
2022-10-19T22:41:02.557Z,15.10
2022-10-19T22:43:33.121Z,15.10
2022-10-19T22:46:03.555Z,15.10
2022-10-19T22:48:33.974Z,15.10
2022-10-19T22:51:04.303Z,15.10
2022-10-19T22:53:37.205Z,15.10
2022-10-19T22:56:08.339Z,15.10
2022-10-19T22:58:38.646Z,15.10
2022-10-19T23:01:13.102Z,15.10
2022-10-19T23:03:43.784Z,15.00
2022-10-19T23:06:16.409Z,15.00
2022-10-19T23:08:49.567Z,15.00
2022-10-19T23:11:20.054Z,15.00
2022-10-19T23:13:50.473Z,15.00
2022-10-19T23:16:20.886Z,15.00
2022-10-19T23:18:51.300Z,15.00
2022-10-19T23:21:22.183Z,15.00
2022-10-19T23:23:55.080Z,14.90
2022-10-19T23:26:25.635Z,15.00
2022-10-19T23:28:56.044Z,14.90
2022-10-19T23:31:30.512Z,14.90
2022-10-19T23:34:00.886Z,15.00
2022-10-19T23:36:32.391Z,14.90
2022-10-19T23:39:05.402Z,14.90
2022-10-19T23:41:36.726Z,14.80
2022-10-19T23:44:07.582Z,14.80
2022-10-19T23:46:37.894Z,14.90
2022-10-19T23:49:08.195Z,14.90
2022-10-19T23:51:38.485Z,14.90
2022-10-19T23:54:11.341Z,14.80
2022-10-19T23:56:41.805Z,14.80
2022-10-19T23:59:12.131Z,14.80
